Home > Products > Valid Products > TAF

000
FTUS41 KBTV 230534
TAFSLK
TAF
KSLK 230534Z 2306/2406 04008KT P6SM OVC025
     FM231800 02009KT 3SM -RA BR OVC015
     FM240100 03004KT 3SM BR OVC010=



000
FTUS41 KBTV 230534
TAFMSS
TAF
KMSS 230534Z 2306/2406 03012KT P6SM BKN050
     FM231400 03012KT P6SM OVC030
     FM240200 02006KT P6SM OVC035=



000
FTUS41 KBTV 230534
TAFMPV
TAF
KMPV 230534Z 2306/2406 36010KT P6SM OVC018
     FM231100 36011KT P6SM OVC008
     FM231500 36009KT 3SM -RA BR OVC008
     FM231800 36009KT 3SM -RA BR OVC015
     FM240200 34006KT 3SM BR OVC008=



000
FTUS41 KBTV 230534
TAFBTV
TAF
KBTV 230534Z 2306/2406 36014KT P6SM OVC035
      TEMPO 2306/2309 OVC028
     FM230900 36014KT P6SM OVC020
     FM231500 35010KT 3SM -RA BR OVC015
     FM240200 36006KT 3SM BR OVC015=



000
FTUS41 KBTV 230314 AAA
TAFSLK
TAF AMD
KSLK 230314Z 2303/2324 06007KT P6SM OVC025
      TEMPO 2306/2308 4SM -RA OVC015
     FM230800 04007KT 4SM -SHRA BR OVC007
     FM231200 02009KT 3SM -RA BR OVC007
     FM231500 02007KT 4SM -RA BR OVC015
     FM231900 01005KT 1 1/2SM -RA BR SCT007 OVC015=



000
FTUS41 KBTV 230314 AAA
TAFBTV
TAF AMD
KBTV 230314Z 2303/2324 35014G20KT P6SM BKN045
      TEMPO 2303/2307 -SHRA BKN025
     FM230700 36014G20KT 4SM -RA BR SCT007 OVC015=



000
FTUS41 KBTV 230314 AAA
TAFMSS
TAF AMD
KMSS 230314Z 2303/2324 04013KT P6SM FEW060
     FM231600 01007KT 4SM -RA BR OVC025=



000
FTUS41 KBTV 230314 AAA
TAFMPV
TAF AMD
KMPV 230314Z 2303/2324 36006KT P6SM OVC015
      TEMPO 2303/2307 5SM -SHRA SCT007 OVC012
     FM230700 34010KT 4SM -RA BR SCT007 OVC010
     FM231200 34012G20KT 3SM -RA BR SCT004 OVC007=



000
FTUS41 KBTV 222343
TAFMPV
TAF
KMPV 222343Z 2300/2324 03006KT P6SM OVC035
      TEMPO 2300/2304 -SHRA BKN015
     FM230400 36010KT P6SM OVC015
      TEMPO 2304/2308 -SHRA
     FM230900 34011KT 4SM -RA BR OVC007=



000
FTUS41 KBTV 222343
TAFSLK
TAF
KSLK 222343Z 2300/2324 VRB04KT P6SM BKN025 OVC050
     FM230200 04005KT P6SM OVC015
     FM230800 04007KT 4SM -SHRA BR OVC007
     FM231400 02009KT 4SM -RA BR OVC007
     FM231500 02007KT 4SM -RA BR OVC015
     FM231900 01005KT 1 1/2SM -RA BR OVC015=



000
FTUS41 KBTV 222343
TAFBTV
TAF
KBTV 222343Z 2300/2324 35008KT P6SM SCT050 BKN080
      TEMPO 2300/2304 -SHRA BKN025
     FM230400 36010KT P6SM OVC015
      TEMPO 2304/2308 -SHRA
     FM231300 36009KT 4SM -RA BR SCT007 OVC015=



000
FTUS41 KBTV 222343
TAFMSS
TAF
KMSS 222343Z 2300/2324 02007KT P6SM OVC070
     FM231600 01007KT 4SM -RA HZ BR OVC025=



000
FTUS41 KBTV 221854 AAA
TAFBTV
TAF AMD
KBTV 221854Z 2219/2318 34013KT P6SM VCSH BKN011 OVC035
      TEMPO 2220/2224 5SM -RA BR BKN008
     FM230000 35013KT 6SM -DZ BR OVC008
     FM230700 36015KT 3SM -RA BR OVC005=



000
FTUS41 KBTV 221720
TAFMPV
TAF
KMPV 221720Z 2218/2318 35008KT P6SM VCSH SCT008 BKN020 OVC030
      TEMPO 2218/2222 4SM -SHRA BKN015
     FM230000 34009KT 6SM -DZ BR SCT008 OVC015
     FM230600 33010KT 3SM -RA BR OVC005=



000
FTUS41 KBTV 221720
TAFSLK
TAF
KSLK 221720Z 2218/2318 04007KT 6SM BR OVC004
      TEMPO 2221/2301 2SM -SHRA BR VV002
     FM230100 04009KT 3SM -DZ BR OVC004
     FM230900 05010KT 2SM -RA BR OVC002=



000
FTUS41 KBTV 221720
TAFMSS
TAF
KMSS 221720Z 2218/2318 05011KT P6SM VCSH OVC020
     FM231200 04011G21KT P6SM -RA OVC015=



000
FTUS41 KBTV 221720
TAFSLK
TAF
KSLK 221720Z 2218/2318 04007KT 6SM BR OVC004
      TEMPO 2221/2301 2SM -SHRA BR VV002
     FM230100 04009KT 3SM -DZ BR OVC004
     FM230900 05010KT 2SM -RA BR OVC002=



000
FTUS41 KBTV 221720
TAFBTV
TAF
KBTV 221720Z 2218/2318 34013KT P6SM VCSH BKN005 OVC030
      TEMPO 2220/2224 5SM -RA BR OVC005
     FM230000 35013KT 6SM -DZ BR OVC005
     FM230700 36015KT 3SM -RA BR OVC005=



000
FTUS41 KBTV 221720
TAFBTV
TAF
KBTV 221720Z 2218/2318 34013KT P6SM VCSH BKN005 OVC030
      TEMPO 2220/2224 5SM -RA BR OVC005
     FM230000 35013KT 6SM -DZ BR OVC005
     FM230700 36015KT 3SM -RA BR OVC005=



000
FTUS41 KBTV 221720
TAFMPV
TAF
KMPV 221720Z 2218/2318 35008KT P6SM VCSH SCT008 BKN020 OVC030
      TEMPO 2218/2222 4SM -SHRA BKN015
     FM230000 34009KT 6SM -DZ BR SCT008 OVC015
     FM230600 33010KT 3SM -RA BR OVC005=



000
FTUS41 KBTV 221720
TAFMSS
TAF
KMSS 221720Z 2218/2318 05011KT P6SM VCSH OVC020
     FM231200 04011G21KT P6SM -RA OVC015=



000
FTUS41 KBTV 221305 AAA
TAFSLK
TAF AMD
KSLK 221305Z 2213/2312 04007KT 4SM BR OVC004
      TEMPO 2213/2217 1SM -DZ BR VV002
     FM221800 05008KT 2SM -RA BR OVC004
     FM230000 05010KT 1SM -RA BR OVC002=



000
FTUS41 KBTV 221302 AAA
TAFMPV
TAF AMD
KMPV 221302Z 2213/2312 35004KT P6SM VCSH SCT015 OVC030
      TEMPO 2213/2216 5SM -SHRA BKN015
     FM221600 01005KT 6SM -RA BR OVC020
     FM221800 01005KT 3SM -RA BR OVC010
     FM222300 36006KT 2SM RA BR OVC005=



000
FTUS41 KBTV 221130
TAFBTV
TAF
KBTV 221130Z 2212/2312 34007KT P6SM OVC003
      TEMPO 2212/2216 -RA OVC005
     FM221600 34008KT 5SM -RA BR OVC008
     FM230000 35011KT 3SM RA BR OVC005=



000
FTUS41 KBTV 221130
TAFMSS
TAF
KMSS 221130Z 2212/2312 04011KT P6SM OVC020
     FM222200 04011G21KT P6SM -RA OVC015
     FM230000 04010G20KT 3SM -RA BR OVC010=



000
FTUS41 KBTV 221130
TAFMPV
TAF
KMPV 221130Z 2212/2312 01005KT 6SM -RA BR OVC020
     FM221600 01005KT 3SM -RA BR OVC010
     FM222300 36006KT 2SM RA BR OVC005=



000
FTUS41 KBTV 221130
TAFSLK
TAF
KSLK 221130Z 2212/2312 06007KT 2SM BR OVC004
      TEMPO 2212/2216 1SM -DZ BR VV002
     FM221600 06010KT 1SM -RA BR OVC004
     FM230000 06011KT 3/4SM -RA BR OVC002=



000
FTUS41 KBTV 221106 AAE
TAFSLK
TAF AMD
KSLK 221106Z 2211/2306 06009KT 3/4SM BR OVC002
     FM221600 05008KT 2SM -RA BR OVC007
     FM230000 05008KT 1SM -RA BR OVC004=



000
FTUS41 KBTV 220920 AAB
TAFMSS
TAF AMD
KMSS 220920Z 2209/2306 04012KT P6SM OVC020
     FM221800 04012G22KT 3SM -RA BR BKN020 BKN050=



000
FTUS41 KBTV 220918 AAC
TAFBTV
TAF AMD
KBTV 220918Z 2209/2306 35007KT P6SM OVC004
     FM221400 35008KT 2SM -RA BR OVC007
     FM221800 36012G17KT 5SM -RA BR OVC008=



000
FTUS41 KBTV 220821 AAB
TAFMPV
TAF AMD
KMPV 220821Z 2208/2306 35005KT P6SM OVC020
      TEMPO 2208/2212 OVC010
     FM221200 35012KT 1SM -DZ BR OVC004
     FM221400 36014G18KT 2SM -RA BR OVC007
     FM221800 01015G22KT 5SM -RA BR OVC008=



000
FTUS41 KBTV 220725 AAD
TAFSLK
TAF AMD
KSLK 220725Z 2207/2306 06005KT 1/2SM FG OVC001
      TEMPO 2207/2211 2SM BR OVC002
     FM221100 05007KT 2SM BR OVC004
     FM221800 05008KT 2SM -RA BR OVC007
     FM230000 05008KT 1SM -RA BR OVC004=



000
FTUS41 KBTV 220631 AAC
TAFSLK
TAF AMD
KSLK 220631Z 2207/2306 06005KT 1/2SM FG OVC001
     FM221300 05007KT 2SM BR OVC004
     FM221800 05008KT 2SM -RA BR OVC007
     FM230000 05008KT 1SM -RA BR OVC004=



000
FTUS41 KBTV 220538 AAA
TAFMSS
TAF AMD
KMSS 220538Z 2206/2306 04013G18KT P6SM OVC020
      TEMPO 2206/2210 3SM -SHRA BR OVC010
     FM221800 04012G20KT 3SM -RA BR BKN020 BKN050=



000
FTUS41 KBTV 220538 AAB
TAFSLK
TAF AMD
KSLK 220538Z 2206/2306 05008KT 5SM -DZ BR OVC002
      TEMPO 2206/2210 2SM -SHRA BR OVC004
     FM221800 05008KT 2SM -RA BR OVC007
     FM230000 05008KT 1SM -RA BR OVC004=



000
FTUS41 KBTV 220538 AAA
TAFMPV
TAF AMD
KMPV 220538Z 2206/2306 36006KT 6SM -DZ BR BKN007 OVC014
      TEMPO 2206/2210 3SM -RA BR OVC004
     FM221000 35012KT 1SM -DZ BR OVC004
     FM221400 36014G18KT 2SM -RA BR OVC007
     FM221800 01015G22KT 5SM -RA BR OVC008=



000
FTUS41 KBTV 220538 AAB
TAFBTV
TAF AMD
KBTV 220538Z 2206/2306 35007KT 6SM -DZ OVC005
      TEMPO 2206/2210 3SM -RA BR OVC003
     FM221000 35008KT 1SM -DZ BR OVC004
     FM221400 35008KT 2SM -RA BR OVC007
     FM221800 36012G17KT 5SM -RA BR OVC008=



000
FTUS41 KBTV 220538 AAA
TAFMPV
TAF AMD
KMPV 220538Z 2206/2306 36006KT 6SM -DZ BR BKN007 OVC014
      TEMPO 2206/2210 3SM -RA BR OVC004
     FM221000 35012KT 1SM -DZ BR OVC004
     FM221400 36014G18KT 2SM -RA BR OVC007
     FM221800 01015G22KT 5SM -RA BR OVC008=



000
FTUS41 KBTV 220538 AAB
TAFBTV
TAF AMD
KBTV 220538Z 2206/2306 35007KT 6SM -DZ OVC005
      TEMPO 2206/2210 3SM -RA BR OVC003
     FM221000 35008KT 1SM -DZ BR OVC004
     FM221400 35008KT 2SM -RA BR OVC007
     FM221800 36012G17KT 5SM -RA BR OVC008=



000
FTUS41 KBTV 220538 AAB
TAFSLK
TAF AMD
KSLK 220538Z 2206/2306 05008KT 5SM -DZ BR OVC002
      TEMPO 2206/2210 2SM -SHRA BR OVC004
     FM221800 05008KT 2SM -RA BR OVC007
     FM230000 05008KT 1SM -RA BR OVC004=



000
FTUS41 KBTV 220538 AAA
TAFMSS
TAF AMD
KMSS 220538Z 2206/2306 04013G18KT P6SM OVC020
      TEMPO 2206/2210 3SM -SHRA BR OVC010
     FM221800 04012G20KT 3SM -RA BR BKN020 BKN050=



000
FTUS41 KBTV 220228 AAA
TAFSLK
TAF AMD
KSLK 220228Z 2202/2224 06009KT 1SM BR VCSH OVC002
     FM221300 05006KT P6SM VCSH OVC010
     FM221900 05008KT 5SM -RA BR OVC008=



000
FTUS41 KBTV 220228 AAA
TAFSLK
TAF AMD
KSLK 220228Z 2202/2224 06009KT 1SM BR VCSH OVC002
     FM221300 05006KT P6SM VCSH OVC010
     FM221900 05008KT 5SM -RA BR OVC008=



000
FTUS41 KBTV 220044 AAA
TAFBTV
TAF AMD
KBTV 220044Z 2201/2224 35006KT P6SM VCSH SCT004 OVC035
      TEMPO 2201/2205 6SM -SHRA BR OVC004
     FM220600 35005KT P6SM VCSH BKN025 OVC050
     FM220900 35003KT P6SM VCSH OVC010
     FM221400 35008KT P6SM VCSH BKN015 OVC040
     FM221800 35012G17KT 5SM -RA BR OVC015=



000
FTUS41 KBTV 212300
TAFBTV
TAF
KBTV 212330Z 2200/2224 35005KT P6SM VCSH BKN035 OVC060
     FM220200 35005KT P6SM VCSH BKN025 OVC050
     FM220900 35003KT P6SM VCSH OVC010
     FM221400 35008KT P6SM VCSH BKN015 OVC040
     FM221800 35012G17KT 5SM -RA BR OVC015=



000
FTUS41 KBTV 212300
TAFMPV
TAF
KMPV 212330Z 2200/2224 34003KT 5SM BR VCSH OVC006
      TEMPO 2200/2204 2SM -RA BR
     FM221400 35007KT P6SM VCSH OVC012
     FM221800 35010KT 4SM -RA BR OVC007=



000
FTUS41 KBTV 212300
TAFMSS
TAF
KMSS 212330Z 2200/2224 05011KT P6SM VCSH OVC018
     FM220400 04010KT P6SM VCSH OVC020
     FM221200 04011KT P6SM VCSH BKN030 OVC050
     FM221800 04012KT P6SM VCSH SCT030 BKN050=



000
FTUS41 KBTV 212300
TAFSLK
TAF
KSLK 212330Z 2200/2224 06009KT 4SM BR VCSH OVC003
     FM221300 05006KT P6SM VCSH OVC010
     FM221900 05008KT 5SM -RA BR OVC008=



000
FTUS41 KBTV 212100 AAA
TAFMPV
TAF AMD
KMPV 212126Z 2121/2218 14006KT 6SM -SHRA BR SCT005 OVC015
      TEMPO 2121/2124 BKN005 OVC015
     FM220000 02005KT 5SM BR VCSH BKN005 OVC015
     FM221200 02005KT 5SM BR VCSH OVC015=



000
FTUS41 KBTV 211700
TAFBTV
TAF
KBTV 211725Z 2118/2218 VRB03KT 6SM -SHRA BR OVC035
      TEMPO 2118/2121 5SM -SHRA BR OVC025
     FM212100 36006KT P6SM VCSH OVC025=



000
FTUS41 KBTV 211700
TAFSLK
TAF
KSLK 211725Z 2118/2218 06007KT P6SM VCSH BKN005 OVC040
      TEMPO 2118/2120 5SM -SHRA BR OVC005
     FM212000 06007KT P6SM VCSH OVC005
      TEMPO 2120/2124 SCT005 OVC025
     FM220000 06006KT P6SM VCSH OVC015=



000
FTUS41 KBTV 211700
TAFMPV
TAF
KMPV 211725Z 2118/2218 VRB03KT 3SM -SHRA BR SCT005 BKN025 OVC040
      TEMPO 2118/2121 2SM -RA BR BKN005 OVC030
     FM212100 14006KT 5SM -SHRA BR OVC015
     FM220600 02005KT 2SM BR VCSH BKN008 OVC015
     FM221200 02005KT 5SM BR VCSH OVC015=



000
FTUS41 KBTV 211700
TAFMSS
TAF
KMSS 211725Z 2118/2218 05010KT P6SM VCSH SCT006 OVC010
     FM220000 04010KT P6SM VCSH OVC015
     FM220600 04010KT P6SM VCSH OVC030
     FM221200 03011KT P6SM VCSH BKN050=



000
FTUS41 KBTV 211500 AAC
TAFMPV
TAF AMD
KMPV 211554Z 2116/2212 VRB03KT 5SM -SHRA OVC040
      TEMPO 2116/2118 3SM -RA BR BKN003 OVC020
     FM211800 14006KT 6SM -RA BR OVC030
     FM220600 02005KT P6SM -RA OVC015=



000
FTUS41 KBTV 211500 AAC
TAFMPV
TAF AMD
KMPV 211554Z 2116/2212 VRB03KT 5SM -SHRA OVC040
      TEMPO 2116/2118 3SM -RA BR BKN003 OVC020
     FM211800 14006KT 6SM -RA BR OVC030
     FM220600 02005KT P6SM -RA OVC015=



000
FTUS41 KBTV 211500 AAB
TAFMPV
TAF AMD
KMPV 211503Z 2115/2212 VRB03KT P6SM -SHRA OVC040
      TEMPO 2115/2117 5SM -RA BR OVC030
     FM211700 14006KT 6SM -RA BR OVC030
     FM220600 02005KT P6SM -RA OVC015=



000
FTUS41 KBTV 211500 AAA
TAFSLK
TAF AMD
KSLK 211501Z 2115/2212 07008KT P6SM -SHRA OVC035
      TEMPO 2115/2117 BKN004 OVC035
     FM211700 06006KT 6SM -RA BR OVC025
     FM220900 06006KT 6SM -RA BR OVC015=



000
FTUS41 KBTV 211400 AAA
TAFMPV
TAF AMD
KMPV 211411Z 2114/2212 VRB03KT P6SM -SHRA OVC040
      TEMPO 2114/2117 6SM -RA BR OVC030
     FM211700 14006KT 6SM -RA BR OVC030
     FM220600 02005KT P6SM -RA OVC015=



000
FTUS41 KBTV 211100
TAFMPV
TAF
KMPV 211131Z 2112/2212 VRB03KT P6SM -SHRA OVC040
     FM211700 14006KT 6SM -RA BR OVC030
     FM220600 02005KT P6SM -RA OVC015=



000
FTUS41 KBTV 211100
TAFBTV
TAF
KBTV 211131Z 2112/2212 08006KT P6SM -SHRA OVC045
     FM212100 36006KT 6SM -RA BR OVC025=



000
FTUS41 KBTV 211100
TAFSLK
TAF
KSLK 211131Z 2112/2212 05004KT P6SM -SHRA OVC035
     FM211600 06006KT 6SM -RA BR OVC025
     FM220900 06006KT 6SM -RA BR OVC015=



000
FTUS41 KBTV 211100
TAFMSS
TAF
KMSS 211131Z 2112/2212 07010KT P6SM VCSH SCT006 OVC035
      TEMPO 2112/2115 6SM -RA BR BKN006 OVC025
     FM211500 05014KT 6SM -RA BR BKN006 OVC020
     FM212100 04010KT P6SM OVC006=



000
FTUS41 KBTV 211100
TAFMSS
TAF
KMSS 211131Z 2112/2212 07010KT P6SM VCSH SCT006 OVC035
      TEMPO 2112/2115 6SM -RA BR BKN006 OVC025
     FM211500 05014KT 6SM -RA BR BKN006 OVC020
     FM212100 04010KT P6SM OVC006=



000
FTUS41 KBTV 211100
TAFBTV
TAF
KBTV 211131Z 2112/2212 08006KT P6SM -SHRA OVC045
     FM212100 36006KT 6SM -RA BR OVC025=



000
FTUS41 KBTV 211100
TAFSLK
TAF
KSLK 211131Z 2112/2212 05004KT P6SM -SHRA OVC035
     FM211600 06006KT 6SM -RA BR OVC025
     FM220900 06006KT 6SM -RA BR OVC015=



000
FTUS41 KBTV 211100
TAFMPV
TAF
KMPV 211131Z 2112/2212 VRB03KT P6SM -SHRA OVC040
     FM211700 14006KT 6SM -RA BR OVC030
     FM220600 02005KT P6SM -RA OVC015=



000
FTUS41 KBTV 210800 AAA
TAFMPV
TAF AMD
KMPV 210834Z 2109/2206 00000KT P6SM -SHRA OVC050
     FM211800 13006KT 6SM -RA BR OVC030
     FM220200 07004KT 6SM -RA BR OVC020=



000
FTUS41 KBTV 210800 AAA
TAFBTV
TAF AMD
KBTV 210833Z 2109/2206 VRB04KT P6SM -SHRA OVC060
     FM211800 35006KT 6SM -RA BR OVC030
     FM212100 35006KT 6SM -RA BR OVC010
     FM220000 35006KT 5SM -RA BR OVC008=



000
FTUS41 KBTV 210500
TAFMPV
TAF
KMPV 210530Z 2106/2206 00000KT P6SM OVC060
     FM211700 14006KT P6SM OVC040
     FM211900 13006KT 6SM -RA BR OVC030
     FM220200 07004KT 6SM -RA BR OVC020=



000
FTUS41 KBTV 210500
TAFSLK
TAF
KSLK 210530Z 2106/2206 00000KT P6SM OVC050
     FM210900 00000KT 6SM -RA BR OVC025
     FM211200 07006KT 6SM -RA BR OVC020
     FM212300 05006KT 6SM -RA BR OVC010=



000
FTUS41 KBTV 210500
TAFBTV
TAF
KBTV 210530Z 2106/2206 00000KT P6SM OVC060
     FM211400 09005KT P6SM -SHRA OVC040
     FM211800 35006KT 6SM -RA BR OVC030
     FM212100 35006KT 6SM -RA BR OVC010
     FM220000 35006KT 5SM -RA BR OVC008=



000
FTUS41 KBTV 210500
TAFMSS
TAF
KMSS 210530Z 2106/2206 05006KT P6SM VCSH OVC040
      TEMPO 2106/2109 BKN025 OVC035
     FM210900 05009KT 6SM -RA BR OVC025
      TEMPO 2109/2112 BKN008 OVC015
     FM211200 05012KT 6SM -RA BR OVC008
     FM212100 05014KT 6SM -RA BR OVC010
     FM220000 05011KT 4SM BR OVC015=



000
FTUS41 KBTV 210200 AAA
TAFBTV
TAF AMD
KBTV 210254Z 2103/2124 VRB03KT P6SM BKN050 OVC080
     FM210600 VRB03KT P6SM VCSH OVC050
     FM210900 12003KT P6SM -SHRA SCT025 OVC040
     FM211600 01006KT 5SM -RA BR BKN025 OVC040=



000
FTUS41 KBTV 210200 AAA
TAFBTV
TAF AMD
KBTV 210254Z 2103/2124 VRB03KT P6SM BKN050 OVC080
     FM210600 VRB03KT P6SM VCSH OVC050
     FM210900 12003KT P6SM -SHRA SCT025 OVC040
     FM211600 01006KT 5SM -RA BR BKN025 OVC040=



000
FTUS41 KBTV 210200 AAA
TAFMSS
TAF AMD
KMSS 210248Z 2103/2124 08004KT P6SM -SHRA SCT025 OVC050
      TEMPO 2103/2106 6SM -SHRA BR BKN025
     FM210600 06008KT 5SM -RA BR SCT008 OVC020
     FM211200 04013G21KT 4SM -RA BR OVC008=



000
FTUS41 KBTV 210200 AAA
TAFMSS
TAF AMD
KMSS 210248Z 2103/2124 08004KT P6SM -SHRA SCT025 OVC050
      TEMPO 2103/2106 6SM -SHRA BR BKN025
     FM210600 06008KT 5SM -RA BR SCT008 OVC020
     FM211200 04013G21KT 4SM -RA BR OVC008=



000
FTUS41 KBTV 210200 AAA
TAFSLK
TAF AMD
KSLK 210245Z 2103/2124 VRB03KT P6SM VCSH SCT028 OVC045
      TEMPO 2104/2107 6SM -SHRA BR BKN028
     FM210700 08004KT P6SM -RA BKN025 OVC040
     FM211200 06005KT 5SM -RA BR BKN020 OVC035=



000
FTUS41 KBTV 210200 AAA
TAFSLK
TAF AMD
KSLK 210245Z 2103/2124 VRB03KT P6SM VCSH SCT028 OVC045
      TEMPO 2104/2107 6SM -SHRA BR BKN028
     FM210700 08004KT P6SM -RA BKN025 OVC040
     FM211200 06005KT 5SM -RA BR BKN020 OVC035=



000
FTUS41 KBTV 202300
TAFMPV
TAF
KMPV 202330Z 2100/2124 VRB02KT P6SM BKN040 OVC070
     FM210800 VRB02KT P6SM -SHRA SCT025 OVC040
     FM211400 VRB04KT 5SM -RA BR BKN025 OVC040=



000
FTUS41 KBTV 202300
TAFBTV
TAF
KBTV 202330Z 2100/2124 09004KT P6SM VCSH OVC050
     FM210600 12003KT P6SM -SHRA SCT025 OVC040
     FM211600 01006KT 5SM -RA BR BKN025 OVC040=



000
FTUS41 KBTV 202300
TAFSLK
TAF
KSLK 202330Z 2100/2124 VRB03KT P6SM VCSH SCT025 OVC040
      TEMPO 2100/2103 6SM -SHRA BR BKN025
     FM210300 VRB03KT P6SM -SHRA SCT025 OVC040
     FM210600 08004KT P6SM -RA BKN025 OVC040
     FM211200 06005KT 5SM -RA BR BKN020 OVC035=



000
FTUS41 KBTV 202300
TAFMSS
TAF
KMSS 202330Z 2100/2124 08005KT P6SM -SHRA SCT020 OVC035
     FM210600 06008KT 5SM -RA BR SCT008 OVC018
     FM211200 04013G21KT 4SM -RA BR OVC008=



000
FTUS41 KBTV 202100 AAA
TAFBTV
TAF AMD
KBTV 202137Z 2022/2118 VRB03KT P6SM OVC060
     FM210000 VRB03KT P6SM VCSH OVC050
     FM210600 07003KT P6SM -SHRA OVC040
     FM211200 02005KT P6SM -SHRA SCT025 OVC040=



000
FTUS41 KBTV 202100 AAA
TAFBTV
TAF AMD
KBTV 202137Z 2022/2118 VRB03KT P6SM OVC060
     FM210000 VRB03KT P6SM VCSH OVC050
     FM210600 07003KT P6SM -SHRA OVC040
     FM211200 02005KT P6SM -SHRA SCT025 OVC040=



000
FTUS41 KBTV 202100 AAA
TAFMSS
TAF AMD
KMSS 202123Z 2021/2118 VRB03KT P6SM -SHRA SCT025 OVC040
      TEMPO 2021/2024 BKN025
     FM210000 08005KT P6SM -SHRA SCT025 OVC040
     FM210600 06008KT 5SM -RA BR SCT008 OVC018
     FM211200 04013G21KT 4SM -RA BR OVC008=



000
FTUS41 KBTV 202100 AAA
TAFSLK
TAF AMD
KSLK 202123Z 2021/2118 VRB03KT P6SM VCSH SCT025 OVC040
      TEMPO 2021/2024 6SM -SHRA BR BKN025
     FM210000 09002KT P6SM -SHRA SCT035 OVC060
     FM210600 08004KT P6SM -RA BKN025 OVC040
     FM211200 07005KT 5SM -RA BR BKN035 OVC050=



000
FTUS41 KBTV 201700
TAFMPV
TAF
KMPV 201731Z 2018/2118 23005KT P6SM FEW040 OVC100
     FM210000 VRB02KT P6SM BKN060 OVC100
     FM211200 VRB02KT P6SM VCSH SCT025 OVC050=



000
FTUS41 KBTV 201700
TAFBTV
TAF
KBTV 201731Z 2018/2118 18008KT P6SM FEW040 BKN100
     FM210000 VRB03KT P6SM VCSH BKN050 OVC090
     FM210600 07003KT P6SM -SHRA OVC045
     FM211200 02005KT P6SM -SHRA SCT025 OVC040=



000
FTUS41 KBTV 201700
TAFSLK
TAF
KSLK 201731Z 2018/2118 23007KT P6SM VCSH SCT025 OVC070
      TEMPO 2018/2022 6SM -SHRA BR BKN025
     FM210000 09002KT P6SM -SHRA SCT035 OVC060
     FM210600 08004KT P6SM -RA BKN025 OVC040
     FM211200 07005KT 5SM -RA BR BKN035 OVC050=



000
FTUS41 KBTV 201700
TAFMSS
TAF
KMSS 201731Z 2018/2118 VRB03KT P6SM -SHRA SCT025 OVC040
      TEMPO 2018/2022 BKN025
     FM210000 08005KT P6SM -SHRA SCT025 OVC040
     FM210600 06008KT 5SM -RA BR SCT008 OVC018
     FM211200 04013G21KT 4SM -RA BR OVC008=



000
FTUS41 KBTV 201500 AAA
TAFMPV
TAF AMD
KMPV 201504Z 2015/2112 23005KT P6SM FEW035 OVC100
     FM210000 VRB03KT P6SM VCSH SCT035 OVC060
     FM210800 VRB02KT P6SM -SHRA SCT025 OVC050=



000
FTUS41 KBTV 201400 AAA
TAFBTV
TAF AMD
KBTV 201459Z 2015/2112 18007KT P6SM SCT040 BKN100
     FM210000 17005KT P6SM VCSH SCT035 OVC070
     FM210600 15005KT P6SM -SHRA OVC045=



000
FTUS41 KBTV 201400 AAA
TAFSLK
TAF AMD
KSLK 201455Z 2015/2112 22005KT P6SM OVC090
     FM201800 21004KT P6SM VCSH SCT035 OVC060
      TEMPO 2018/2022 5SM -SHRA BR BKN035
     FM210000 VRB03KT P6SM -SHRA SCT018 OVC028=



000
FTUS41 KBTV 201400 AAA
TAFMSS
TAF AMD
KMSS 201451Z 2015/2112 20005KT P6SM OVC100
     FM201800 23005KT P6SM VCSH SCT040 OVC070
      TEMPO 2018/2022 -SHRA BKN040
     FM210000 08006KT P6SM -SHRA SCT020 OVC028
     FM210700 08004KT 4SM -SHRA BR SCT008 OVC018=



000
FTUS41 KBTV 201100
TAFMPV
TAF
KMPV 201120Z 2012/2112 30004KT P6SM BKN035
     FM201500 23005KT P6SM SCT120 BKN200
     FM201900 19005KT P6SM SCT050 OVC100
     FM210800 17003KT P6SM -RA BKN050=



000
FTUS41 KBTV 201100
TAFMSS
TAF
KMSS 201120Z 2012/2112 23003KT P6SM BKN120
     FM201500 20005KT P6SM BKN070 OVC150
     FM202200 09005KT P6SM VCSH SCT028 OVC040
     FM210300 08006KT P6SM -SHRA SCT020 OVC028
     FM210700 08004KT 4SM -SHRA BR SCT008 OVC018=



000
FTUS41 KBTV 201100
TAFBTV
TAF
KBTV 201120Z 2012/2112 18005KT P6SM SCT060 BKN150
     FM210100 18007KT P6SM VCSH SCT045 OVC080
     FM210600 17005KT P6SM -SHRA OVC045=



000
FTUS41 KBTV 201100
TAFSLK
TAF
KSLK 201120Z 2012/2112 23005KT P6SM VCSH BKN035 OVC100
      TEMPO 2012/2014 BKN028
     FM201700 22007KT P6SM SCT030 OVC080
     FM210400 21004KT P6SM -SHRA SCT018 OVC028=



    US Dept of Commerce
    National Oceanic and Atmospheric Administration
    National Weather Service
    1325 East West Highway
    Silver Spring, MD 20910
    Page Author: NWS Internet Services Team
Disclaimer
Information Quality
Credits
Glossary
Privacy Policy
Freedom of Information Act (FOIA)
About Us
Career Opportunities